Time;durP1;ratioP1;P1;durP2;ratioP2;P2;SDS_P1;SDS_P2;PMS_P1;PMS_P2;Temp;Humidity;BMP_temperature;BMP_pressure;BME280_temperature;BME280_humidity;BME280_pressure;Samples;Min_cycle;Max_cycle;Signal;HPM_P1;HPM_P2
2021/05/09 00:02:10;;;;;;;36.55;22.88;;;282.20;1868.80;;;;;;5075881;28;20103;-76
2021/05/09 00:04:36;;;;;;;35.33;23.08;;;282.20;1894.40;;;;;;5073762;28;20055;-76
2021/05/09 00:07:02;;;;;;;38.38;23.23;;;282.10;1894.40;;;;;;5074064;28;20491;-76
2021/05/09 00:09:27;;;;;;;38.03;23.27;;;282.20;1920.00;;;;;;5075692;28;20031;-76
2021/05/09 00:11:53;;;;;;;34.63;23.52;;;282.30;1894.40;;;;;;5073856;28;20377;-75
2021/05/09 00:14:19;;;;;;;36.78;23.38;;;282.10;1920.00;;;;;;5075222;28;20464;-76
2021/05/09 00:16:45;;;;;;;35.58;24.50;;;281.80;1971.20;;;;;;5075032;28;20108;-76
2021/05/09 00:19:11;;;;;;;38.80;24.90;;;281.70;1945.60;;;;;;5075066;28;20040;-76
2021/05/09 00:21:37;;;;;;;36.65;22.50;;;281.60;1996.80;;;;;;5073962;28;20025;-77
2021/05/09 00:24:03;;;;;;;42.20;25.50;;;281.80;1945.60;;;;;;5075195;28;20031;-75
2021/05/09 00:26:29;;;;;;;37.05;23.65;;;256.90;1971.20;;;;;;5073909;28;20480;-75
2021/05/09 00:28:55;;;;;;;44.00;24.13;;;281.60;1971.20;;;;;;5073678;28;20047;-75
2021/05/09 00:31:21;;;;;;;40.83;23.63;;;281.70;1971.20;;;;;;5074736;28;20072;-76
2021/05/09 00:33:46;;;;;;;38.83;23.33;;;256.80;1971.20;;;;;;5074438;28;20024;-76
2021/05/09 00:36:12;;;;;;;37.33;23.75;;;256.80;1971.20;;;;;;5073324;28;20019;-75
2021/05/09 00:38:38;;;;;;;33.83;21.98;;;281.70;1945.60;;;;;;5074357;28;20384;-75
2021/05/09 00:41:03;;;;;;;38.55;23.58;;;281.80;1920.00;;;;;;5074247;28;20025;-75
2021/05/09 00:43:29;;;;;;;36.78;23.15;;;281.80;1945.60;;;;;;5073554;28;20056;-76
2021/05/09 00:45:55;;;;;;;33.80;21.85;;;256.90;1971.20;;;;;;5074797;28;20075;-75
2021/05/09 00:48:21;;;;;;;35.60;22.88;;;281.60;1945.60;;;;;;5073128;28;20041;-75
2021/05/09 00:50:46;;;;;;;49.75;24.58;;;281.70;1920.00;;;;;;5073262;28;20028;-76
2021/05/09 00:53:16;;;;;;;34.40;23.13;;;256.70;1971.20;;;;;;5073903;28;20070;-75
2021/05/09 00:55:43;;;;;;;33.58;21.92;;;256.70;1971.20;;;;;;5074531;28;20020;-75
2021/05/09 00:58:14;;;;;;;37.47;24.38;;;256.90;1920.00;;;;;;5074740;28;20017;-75
2021/05/09 01:00:40;;;;;;;40.03;23.45;;;256.70;1971.20;;;;;;5074477;28;20104;-76
2021/05/09 01:03:07;;;;;;;36.50;24.02;;;256.80;1945.60;;;;;;5073217;28;20083;-75
2021/05/09 01:05:33;;;;;;;33.80;21.92;;;256.60;1971.20;;;;;;5072981;28;20039;-75
2021/05/09 01:08:01;;;;;;;36.63;22.75;;;256.70;1945.60;;;;;;5074330;28;20025;-75
2021/05/09 01:10:27;;;;;;;35.05;21.83;;;256.70;1971.20;;;;;;5074170;28;20024;-75
2021/05/09 01:12:53;;;;;;;33.10;21.48;;;256.80;1945.60;;;;;;5074429;28;20388;-75
2021/05/09 01:15:19;;;;;;;35.08;22.88;;;256.90;1920.00;;;;;;5074375;28;20078;-76
2021/05/09 01:17:45;;;;;;;39.22;23.48;;;256.80;1945.60;;;;;;5072387;28;20029;-76
2021/05/09 01:20:11;;;;;;;39.58;23.58;;;256.90;1920.00;;;;;;5073562;28;20091;-76
2021/05/09 01:22:36;;;;;;;33.63;22.63;;;256.80;1945.60;;;;;;5073665;28;20016;-76
2021/05/09 01:25:04;;;;;;;35.47;21.23;;;256.70;1971.20;;;;;;5072708;28;20036;-75
2021/05/09 01:27:30;;;;;;;36.53;24.67;;;256.80;1945.60;;;;;;5072281;28;20033;-76
2021/05/09 01:29:56;;;;;;;34.47;22.42;;;256.70;1945.60;;;;;;5073683;28;20498;-75
2021/05/09 01:32:21;;;;;;;36.05;21.55;;;256.70;1971.20;;;;;;5073661;28;20029;-76
2021/05/09 01:34:47;;;;;;;35.72;22.42;;;256.70;1945.60;;;;;;5073646;28;20024;-76
2021/05/09 01:37:13;;;;;;;33.95;21.48;;;256.50;1971.20;;;;;;5071953;28;20029;-76
2021/05/09 01:39:39;;;;;;;32.65;21.13;;;256.60;1945.60;;;;;;5073741;28;20050;-75
2021/05/09 01:42:05;;;;;;;39.78;24.38;;;256.60;1945.60;;;;;;5073661;28;20043;-75
2021/05/09 01:44:31;;;;;;;36.60;22.92;;;256.70;1945.60;;;;;;5072101;28;20404;-76
2021/05/09 01:46:57;;;;;;;35.90;22.00;;;256.40;1971.20;;;;;;5072068;28;20102;-75
2021/05/09 01:49:23;;;;;;;33.42;21.17;;;256.30;1971.20;;;;;;5070620;28;20028;-75
2021/05/09 01:51:49;;;;;;;44.33;22.77;;;256.50;1971.20;;;;;;5070161;28;20051;-75
2021/05/09 01:54:15;;;;;;;35.90;22.85;;;256.60;1971.20;;;;;;5073550;28;20027;-75
2021/05/09 01:56:41;;;;;;;35.15;21.85;;;256.50;1971.20;;;;;;5072172;28;20029;-75
2021/05/09 01:59:08;;;;;;;33.25;21.30;;;256.60;1945.60;;;;;;5073497;28;20017;-75
2021/05/09 02:01:37;;;;;;;33.65;22.83;;;256.60;1971.20;;;;;;5073333;28;20016;-76
2021/05/09 02:04:03;;;;;;;32.15;20.83;;;256.60;1971.20;;;;;;5070506;28;20059;-75
2021/05/09 02:06:29;;;;;;;38.25;23.27;;;256.40;1971.20;;;;;;5073717;28;20028;-76
2021/05/09 02:08:55;;;;;;;32.38;20.98;;;256.60;1971.20;;;;;;5071637;28;20037;-76
2021/05/09 02:11:20;;;;;;;34.75;21.73;;;256.70;1945.60;;;;;;5073305;28;20099;-76
2021/05/09 02:13:46;;;;;;;34.60;22.83;;;256.50;1945.60;;;;;;5072022;28;20431;-75
2021/05/09 02:16:12;;;;;;;33.03;21.35;;;256.60;1971.20;;;;;;5071632;28;20727;-75
2021/05/09 02:18:37;;;;;;;32.63;20.65;;;256.30;1971.20;;;;;;5072049;28;20016;-75
2021/05/09 02:21:03;;;;;;;34.35;21.23;;;256.50;1971.20;;;;;;5071984;28;20025;-76
2021/05/09 02:23:29;;;;;;;34.85;21.23;;;256.60;1945.60;;;;;;5071966;28;20024;-75
2021/05/09 02:25:55;;;;;;;33.80;20.73;;;256.70;1920.00;;;;;;5073165;28;20028;-76
2021/05/09 02:28:20;;;;;;;35.90;21.10;;;256.70;1920.00;;;;;;5071894;28;20028;-75
2021/05/09 02:30:46;;;;;;;32.40;20.85;;;256.40;1945.60;;;;;;5073551;28;20468;-75
2021/05/09 02:33:12;;;;;;;34.53;21.33;;;256.60;1945.60;;;;;;5071524;28;20036;-76
2021/05/09 02:35:38;;;;;;;34.92;20.30;;;256.40;1945.60;;;;;;5071786;28;20051;-75
2021/05/09 02:38:04;;;;;;;31.42;19.33;;;256.20;1971.20;;;;;;5073021;28;20469;-74
2021/05/09 02:40:30;;;;;;;38.60;19.50;;;256.40;1945.60;;;;;;5071522;28;20033;-76
2021/05/09 02:42:56;;;;;;;32.72;20.08;;;256.50;1945.60;;;;;;5071074;28;20031;-75
2021/05/09 02:45:22;;;;;;;34.10;20.52;;;256.30;1971.20;;;;;;5072956;28;20131;-75
2021/05/09 02:47:47;;;;;;;34.53;20.63;;;256.10;1971.20;;;;;;5071734;28;20020;-75
2021/05/09 02:50:13;;;;;;;31.48;19.05;;;256.30;1971.20;;;;;;5071581;28;20103;-75
2021/05/09 02:52:40;;;;;;;29.05;18.60;;;256.40;1945.60;;;;;;5072067;28;20469;-76
2021/05/09 02:55:06;;;;;;;37.10;20.27;;;256.50;1945.60;;;;;;5071591;28;20472;-75
2021/05/09 02:57:32;;;;;;;35.78;20.33;;;256.40;1945.60;;;;;;5071644;28;20024;-75
2021/05/09 02:59:58;;;;;;;32.13;19.05;;;256.30;1971.20;;;;;;5071532;28;20519;-76
2021/05/09 03:02:23;;;;;;;34.08;20.42;;;256.10;1971.20;;;;;;5072794;28;20024;-75
2021/05/09 03:04:49;;;;;;;31.30;19.15;;;256.10;1971.20;;;;;;5072774;28;20028;-75
2021/05/09 03:07:15;;;;;;;33.17;18.95;;;231.30;1996.80;;;;;;5071564;28;20028;-76
2021/05/09 03:09:40;;;;;;;32.53;18.67;;;256.00;1971.20;;;;;;5071467;28;20036;-77
2021/05/09 03:12:07;;;;;;;30.95;19.67;;;231.20;2022.40;;;;;;5072911;28;20025;-77
2021/05/09 03:14:33;;;;;;;32.70;19.10;;;231.10;2048.00;;;;;;5072888;28;20119;-75
2021/05/09 03:16:58;;;;;;;34.05;18.80;;;231.20;2048.00;;;;;;5076198;28;20058;-75
2021/05/09 03:19:24;;;;;;;35.97;19.92;;;231.20;2022.40;;;;;;5075022;28;20024;-74
2021/05/09 03:21:50;;;;;;;27.60;18.65;;;231.10;2048.00;;;;;;5075698;28;20021;-75
2021/05/09 03:24:16;;;;;;;34.25;18.70;;;231.10;2048.00;;;;;;5074767;28;20526;-75
2021/05/09 03:26:41;;;;;;;29.88;19.00;;;231.20;2048.00;;;;;;5075095;28;20020;-76
2021/05/09 03:29:07;;;;;;;30.90;17.88;;;231.20;2048.00;;;;;;5074903;28;20471;-75
2021/05/09 03:31:34;;;;;;;31.92;17.92;;;256.00;2022.40;;;;;;5076122;28;20076;-75
2021/05/09 03:34:01;;;;;;;26.45;17.13;;;256.00;2022.40;;;;;;5076018;28;20527;-75
2021/05/09 03:36:27;;;;;;;29.95;18.02;;;256.10;1971.20;;;;;;5074713;28;20037;-75
2021/05/09 03:38:53;;;;;;;25.75;16.85;;;231.30;2022.40;;;;;;5076101;28;20145;-75
2021/05/09 03:41:20;;;;;;;31.40;18.63;;;231.30;2022.40;;;;;;5075991;28;20024;-75
2021/05/09 03:43:46;;;;;;;30.23;17.15;;;231.30;2048.00;;;;;;5074547;28;20028;-75
2021/05/09 03:46:12;;;;;;;34.22;18.00;;;231.30;2022.40;;;;;;5075414;28;20154;-75
2021/05/09 03:48:37;;;;;;;30.30;17.45;;;256.00;2022.40;;;;;;5073828;28;20086;-76
2021/05/09 03:51:03;;;;;;;34.33;18.25;;;256.10;1996.80;;;;;;5076000;28;20028;-75
2021/05/09 03:53:30;;;;;;;32.70;18.90;;;256.20;1996.80;;;;;;5075962;28;20111;-75
2021/05/09 03:55:57;;;;;;;40.13;21.50;;;256.10;1996.80;;;;;;5074461;28;20021;-75
2021/05/09 03:58:22;;;;;;;32.58;18.70;;;256.20;1996.80;;;;;;5074373;28;20021;-75
2021/05/09 04:00:48;;;;;;;36.70;19.35;;;256.10;1996.80;;;;;;5075615;28;20427;-75
2021/05/09 04:03:28;;;;;;;32.60;21.38;;;256.20;2022.40;;;;;;5075606;28;20035;-75
2021/05/09 04:05:54;;;;;;;31.65;21.02;;;256.20;1996.80;;;;;;5075551;28;20024;-75
2021/05/09 04:08:22;;;;;;;37.30;20.90;;;256.20;2022.40;;;;;;5074666;28;20094;-76
2021/05/09 04:10:49;;;;;;;38.20;22.05;;;256.10;2048.00;;;;;;5075417;28;20028;-75
2021/05/09 04:13:15;;;;;;;55.25;25.38;;;256.30;2022.40;;;;;;5073711;28;20039;-75
2021/05/09 04:15:41;;;;;;;49.90;25.25;;;256.20;2048.00;;;;;;5075466;28;20021;-75
2021/05/09 04:18:07;;;;;;;47.22;23.38;;;256.30;2048.00;;;;;;5074161;28;20576;-75
2021/05/09 04:20:33;;;;;;;36.10;21.13;;;256.40;2048.00;;;;;;5075266;28;20017;-75
2021/05/09 04:23:12;;;;;;;40.80;19.67;;;256.40;2048.00;;;;;;5075231;28;20025;-75
2021/05/09 04:25:38;;;;;;;35.35;19.38;;;256.50;2048.00;;;;;;5075125;28;20032;-75
2021/05/09 04:28:05;;;;;;;34.42;20.25;;;256.70;2073.60;;;;;;5072939;28;20025;-76
2021/05/09 04:30:31;;;;;;;35.97;21.50;;;256.70;2048.00;;;;;;5075182;28;20045;-76
2021/05/09 04:33:06;;;;;;;31.50;17.52;;;281.60;2022.40;;;;;;5074098;28;20040;-76
2021/05/09 04:35:34;;;;;;;34.80;18.30;;;281.60;2022.40;;;;;;5073640;28;20166;-76
2021/05/09 04:38:00;;;;;;;35.30;18.70;;;281.70;2048.00;;;;;;5075096;28;20021;-75
2021/05/09 04:40:29;;;;;;;33.42;18.85;;;281.70;1996.80;;;;;;5073667;28;20031;-76
2021/05/09 04:42:56;;;;;;;32.58;19.42;;;281.90;1996.80;;;;;;5074894;28;20031;-76
2021/05/09 04:45:22;;;;;;;33.58;18.42;;;282.00;1971.20;;;;;;5074905;28;20103;-76
2021/05/09 04:47:48;;;;;;;32.30;18.10;;;282.30;1945.60;;;;;;5073695;28;20024;-75
2021/05/09 04:50:14;;;;;;;31.77;17.10;;;282.30;1945.60;;;;;;5071822;28;20029;-75
2021/05/09 04:52:40;;;;;;;31.08;16.25;;;282.50;1920.00;;;;;;5074877;28;20399;-76
2021/05/09 04:55:07;;;;;;;27.77;15.38;;;307.30;1920.00;;;;;;5074781;28;20020;-75
2021/05/09 04:57:33;;;;;;;26.65;13.90;;;307.30;1894.40;;;;;;5074908;28;20055;-76
2021/05/09 05:00:00;;;;;;;23.30;13.60;;;307.50;1843.20;;;;;;5073047;28;20036;-75
2021/05/09 05:02:26;;;;;;;29.17;14.05;;;307.50;1817.60;;;;;;5073306;28;20507;-75
2021/05/09 05:04:52;;;;;;;42.97;17.05;;;307.60;1792.00;;;;;;5074604;28;20032;-75
2021/05/09 05:07:17;;;;;;;27.13;13.38;;;307.60;1792.00;;;;;;5074560;28;20430;-75
2021/05/09 05:09:43;;;;;;;26.77;12.90;;;307.70;1792.00;;;;;;5074527;28;20054;-75
2021/05/09 05:12:09;;;;;;;24.45;13.75;;;307.80;1766.40;;;;;;5073479;28;20025;-75
2021/05/09 05:14:35;;;;;;;27.90;14.25;;;307.80;1766.40;;;;;;5074470;28;20107;-74
2021/05/09 05:17:02;;;;;;;26.10;13.30;;;307.90;1766.40;;;;;;5073360;28;20361;-74
2021/05/09 05:19:27;;;;;;;23.73;13.57;;;308.00;1766.40;;;;;;5080191;28;20033;-75
2021/05/09 05:21:53;;;;;;;25.58;13.60;;;308.00;1766.40;;;;;;5088204;28;20476;-76
2021/05/09 05:24:19;;;;;;;21.02;13.23;;;308.10;1766.40;;;;;;5086233;28;20031;-76
2021/05/09 05:26:45;;;;;;;23.05;13.32;;;332.80;1766.40;;;;;;5078353;28;20108;-75
2021/05/09 05:29:11;;;;;;;25.52;13.52;;;332.80;1792.00;;;;;;5074244;28;20476;-76
2021/05/09 05:31:36;;;;;;;22.08;13.55;;;332.90;1766.40;;;;;;5072287;28;20068;-75
2021/05/09 05:34:02;;;;;;;28.88;14.73;;;332.90;1766.40;;;;;;5073701;28;20422;-77
2021/05/09 05:36:31;;;;;;;23.77;11.95;;;333.00;1766.40;;;;;;5073891;28;20507;-76
2021/05/09 05:38:57;;;;;;;23.33;13.18;;;333.00;1766.40;;;;;;5072413;28;20025;-76
2021/05/09 05:41:23;;;;;;;27.38;13.45;;;333.10;1766.40;;;;;;5072301;28;20036;-75
2021/05/09 05:43:49;;;;;;;23.25;12.38;;;333.10;1766.40;;;;;;5072142;28;20519;-77
2021/05/09 05:46:14;;;;;;;23.48;12.32;;;333.20;1766.40;;;;;;5073726;28;20029;-75
2021/05/09 05:48:40;;;;;;;26.75;13.40;;;333.40;1740.80;;;;;;5073745;28;20020;-75
2021/05/09 05:51:06;;;;;;;21.15;12.75;;;333.50;1740.80;;;;;;5072343;28;20024;-76
2021/05/09 05:53:31;;;;;;;22.45;11.93;;;333.50;1740.80;;;;;;5072276;28;20565;-76
2021/05/09 05:55:57;;;;;;;22.77;12.00;;;333.60;1740.80;;;;;;5073603;28;20472;-76
2021/05/09 05:58:23;;;;;;;18.02;10.95;;;333.60;1740.80;;;;;;5073533;28;20488;-76
2021/05/09 06:00:49;;;;;;;18.98;11.40;;;358.40;1766.40;;;;;;5071939;28;20119;-76
2021/05/09 06:03:16;;;;;;;23.63;11.07;;;358.40;1740.80;;;;;;5071711;28;20041;-77
2021/05/09 06:05:45;;;;;;;22.40;12.23;;;358.50;1715.20;;;;;;5071744;28;20036;-76
2021/05/09 06:08:11;;;;;;;23.67;10.88;;;358.50;1715.20;;;;;;5073309;28;20028;-76
2021/05/09 06:10:37;;;;;;;21.00;10.95;;;358.60;1715.20;;;;;;5072788;28;20383;-77
2021/05/09 06:13:03;;;;;;;19.65;12.07;;;358.70;1664.00;;;;;;5072277;28;20047;-75
2021/05/09 06:15:29;;;;;;;25.15;11.60;;;358.80;1689.60;;;;;;5071628;28;20484;-75
2021/05/09 06:17:55;;;;;;;26.35;12.98;;;358.80;1689.60;;;;;;5073296;28;20047;-74
2021/05/09 06:20:21;;;;;;;23.30;11.15;;;358.90;1689.60;;;;;;5071855;28;20090;-73
2021/05/09 06:22:47;;;;;;;26.05;12.43;;;358.90;1689.60;;;;;;5074147;28;20033;-74
2021/05/09 06:25:15;;;;;;;18.77;10.52;;;358.90;1689.60;;;;;;5076311;28;20083;-74
2021/05/09 06:27:41;;;;;;;25.63;11.32;;;359.00;1689.60;;;;;;5065920;28;20025;-74
2021/05/09 06:30:08;;;;;;;17.67;9.73;;;359.20;1664.00;;;;;;5071507;28;20048;-73
2021/05/09 06:32:33;;;;;;;25.23;10.90;;;359.20;1664.00;;;;;;5073244;28;20013;-74
2021/05/09 06:34:59;;;;;;;20.92;8.95;;;359.20;1638.40;;;;;;5072702;28;20074;-74
2021/05/09 06:37:26;;;;;;;19.90;8.90;;;359.30;1638.40;;;;;;5072551;28;20027;-74
2021/05/09 06:39:52;;;;;;;18.38;8.45;;;384.00;1587.20;;;;;;5071715;28;20036;-74
2021/05/09 06:42:18;;;;;;;22.42;8.02;;;384.10;1587.20;;;;;;5071491;28;20524;-75
2021/05/09 06:44:49;;;;;;;20.50;7.57;;;384.30;1561.60;;;;;;5071733;28;20100;-74
2021/05/09 06:47:14;;;;;;;;;;;384.30;1536.00;;;;;;5073182;28;20024;-74
2021/05/09 06:49:40;;;;;;;13.43;7.13;;;384.30;1510.40;;;;;;5071746;28;19911;-74
2021/05/09 06:52:06;;;;;;;11.52;5.82;;;384.40;1536.00;;;;;;5077045;28;20055;-74
2021/05/09 06:54:32;;;;;;;14.23;6.90;;;384.40;1536.00;;;;;;5074895;28;20527;-77
2021/05/09 06:57:02;;;;;;;16.70;6.18;;;384.60;1536.00;;;;;;5075181;28;20028;-78
2021/05/09 06:59:28;;;;;;;20.85;7.03;;;409.60;1715.20;;;;;;5075347;28;20016;-75
2021/05/09 07:01:54;;;;;;;12.57;6.15;;;384.90;1536.00;;;;;;5076624;28;20025;-73
2021/05/09 07:04:20;;;;;;;12.43;5.70;;;409.60;1536.00;;;;;;5076269;28;20020;-75
2021/05/09 07:06:45;;;;;;;17.85;6.20;;;409.60;1510.40;;;;;;5074815;28;20028;-75
2021/05/09 07:09:11;;;;;;;11.88;6.38;;;409.70;1510.40;;;;;;5076177;28;20077;-74
2021/05/09 07:11:38;;;;;;;18.75;7.35;;;409.70;1510.40;;;;;;5076482;28;20033;-74
2021/05/09 07:14:04;;;;;;;20.52;9.77;;;409.80;1561.60;;;;;;5077626;28;20810;-74
2021/05/09 07:16:31;;;;;;;13.30;6.30;;;409.80;1536.00;;;;;;5074178;28;20815;-74
2021/05/09 07:18:57;;;;;;;21.58;10.98;;;409.80;1484.80;;;;;;5072686;28;20028;-74
2021/05/09 07:21:29;;;;;;;12.63;6.00;;;409.90;1484.80;;;;;;5071400;28;20024;-73
2021/05/09 07:23:54;;;;;;;8.80;4.45;;;410.10;1459.20;;;;;;5074676;28;20059;-73
2021/05/09 07:26:20;;;;;;;7.68;4.13;;;410.10;1459.20;;;;;;5075911;28;20044;-74
2021/05/09 07:28:46;;;;;;;13.90;5.38;;;410.10;1433.60;;;;;;5075968;28;20044;-74
2021/05/09 07:31:13;;;;;;;13.73;5.40;;;410.20;1459.20;;;;;;5074799;28;20067;-73
2021/05/09 07:33:40;;;;;;;8.00;3.60;;;410.30;1484.80;;;;;;5074716;28;20039;-74
2021/05/09 07:36:06;;;;;;;12.23;7.38;;;410.40;1433.60;;;;;;5075550;28;20028;-74
2021/05/09 07:38:32;;;;;;;10.80;5.32;;;410.50;1433.60;;;;;;5073758;28;20032;-75
2021/05/09 07:40:58;;;;;;;10.70;4.22;;;410.50;1382.40;;;;;;5074258;28;20388;-74
2021/05/09 07:43:23;;;;;;;9.02;2.95;;;435.20;1280.00;;;;;;5074750;28;20451;-74
2021/05/09 07:45:49;;;;;;;10.38;3.42;;;435.20;1305.60;;;;;;5074170;28;20036;-74
2021/05/09 07:48:15;;;;;;;13.52;4.28;;;435.30;1331.20;;;;;;5074170;28;20036;-74
2021/05/09 07:50:41;;;;;;;9.65;4.13;;;435.30;1280.00;;;;;;5074083;28;20407;-73
2021/05/09 07:53:08;;;;;;;9.82;4.82;;;435.40;1280.00;;;;;;5075635;28;20021;-73
2021/05/09 07:55:34;;;;;;;9.82;4.15;;;435.50;1280.00;;;;;;5076097;28;20048;-74
2021/05/09 07:58:00;;;;;;;13.35;5.05;;;435.50;1280.00;;;;;;5075646;28;20464;-74
2021/05/09 08:00:26;;;;;;;11.57;5.68;;;435.50;1254.40;;;;;;5074347;28;20050;-74
2021/05/09 08:02:52;;;;;;;14.68;7.82;;;435.60;1254.40;;;;;;5074424;28;20020;-73
2021/05/09 08:05:20;;;;;;;13.70;6.57;;;435.70;1228.80;;;;;;5075486;28;20033;-74
2021/05/09 08:07:57;;;;;;;10.32;5.05;;;435.80;1228.80;;;;;;5075281;28;20495;-74
2021/05/09 08:10:25;;;;;;;18.60;5.32;;;435.80;1254.40;;;;;;5075127;28;20024;-74
2021/05/09 08:12:51;;;;;;;10.35;4.93;;;435.80;1177.60;;;;;;5075528;28;20100;-74
2021/05/09 08:15:18;;;;;;;42.15;7.18;;;435.80;1203.20;;;;;;5075029;28;20530;-74
2021/05/09 08:17:46;;;;;;;8.60;3.67;;;435.80;1177.60;;;;;;5072530;28;20103;-74
2021/05/09 08:20:12;;;;;;;11.07;4.82;;;435.90;1177.60;;;;;;5073249;28;20027;-74
2021/05/09 08:22:38;;;;;;;7.45;4.15;;;435.80;1152.00;;;;;;5073700;28;20092;-74
2021/05/09 08:25:07;;;;;;;8.40;3.33;;;436.00;1177.60;;;;;;5073220;28;20037;-75
2021/05/09 08:27:34;;;;;;;8.48;3.65;;;436.10;1177.60;;;;;;5073785;28;20028;-74
2021/05/09 08:30:04;;;;;;;7.82;3.00;;;436.10;1100.80;;;;;;5074845;28;20072;-74
2021/05/09 08:32:30;;;;;;;;;;;460.90;1152.00;;;;;;5075929;28;20028;-74
2021/05/09 08:34:58;;;;;;;11.30;3.60;;;461.00;1126.40;;;;;;5074892;28;20271;-74
2021/05/09 08:37:24;;;;;;;10.88;4.47;;;460.90;1152.00;;;;;;5073452;28;20032;-75
2021/05/09 08:39:49;;;;;;;10.98;3.95;;;461.00;1126.40;;;;;;5075375;28;20030;-74
2021/05/09 08:42:17;;;;;;;7.30;3.65;;;461.00;1100.80;;;;;;5074234;28;20028;-74
2021/05/09 08:44:50;;;;;;;13.23;4.20;;;461.10;1177.60;;;;;;5074676;28;20024;-75
2021/05/09 08:47:36;;;;;;;9.18;4.07;;;461.20;1152.00;;;;;;5073410;28;20086;-75
2021/05/09 08:50:25;;;;;;;8.73;3.78;;;461.10;1126.40;;;;;;5075123;28;20035;-74
2021/05/09 08:52:52;;;;;;;8.75;2.80;;;461.20;1100.80;;;;;;5072819;28;20036;-74
2021/05/09 08:55:25;;;;;;;5.30;3.53;;;461.20;1075.20;;;;;;5072943;28;20029;-74
2021/05/09 08:57:52;;;;;;;6.90;2.63;;;461.20;1075.20;;;;;;5073836;28;20021;-74
2021/05/09 09:00:19;;;;;;;7.75;3.50;;;461.30;1100.80;;;;;;5072159;28;20493;-74
2021/05/09 09:02:44;;;;;;;8.27;3.60;;;461.50;1126.40;;;;;;5073538;28;20067;-75
2021/05/09 09:05:12;;;;;;;6.85;3.58;;;461.50;1100.80;;;;;;5074280;28;20472;-75
2021/05/09 09:07:52;;;;;;;7.10;3.63;;;461.60;1152.00;;;;;;5073041;28;20036;-74
2021/05/09 09:10:39;;;;;;;8.88;2.60;;;461.60;1100.80;;;;;;5090190;28;20040;-74
2021/05/09 09:13:25;;;;;;;5.32;2.50;;;461.70;1049.60;;;;;;5073617;28;20024;-74
2021/05/09 09:15:58;;;;;;;6.63;3.42;;;461.70;1049.60;;;;;;5072956;28;20033;-75
2021/05/09 09:18:43;;;;;;;7.43;2.83;;;461.70;1075.20;;;;;;5072352;28;20028;-74
2021/05/09 09:21:28;;;;;;;6.65;3.58;;;461.70;1126.40;;;;;;5072612;28;20043;-74
2021/05/09 09:24:08;;;;;;;7.97;2.60;;;486.40;1177.60;;;;;;5072224;28;20823;-74
2021/05/09 09:26:48;;;;;;;9.13;3.08;;;486.50;1075.20;;;;;;5074001;28;20074;-74
2021/05/09 09:29:33;;;;;;;5.70;2.10;;;486.60;1126.40;;;;;;5073975;28;20040;-74
2021/05/09 09:32:03;;;;;;;3.83;1.92;;;486.60;1049.60;;;;;;5073776;28;20036;-74
2021/05/09 09:34:41;;;;;;;5.20;1.93;;;486.60;1024.00;;;;;;5073533;28;20024;-75
2021/05/09 09:37:08;;;;;;;3.13;1.40;;;486.60;1049.60;;;;;;5073322;28;20245;-75
2021/05/09 09:39:54;;;;;;;4.30;1.33;;;486.70;998.40;;;;;;5073468;28;20096;-74
2021/05/09 09:42:40;;;;;;;3.42;2.38;;;486.70;998.40;;;;;;5071876;28;20138;-74
2021/05/09 09:45:22;;;;;;;2.95;1.77;;;486.80;947.20;;;;;;5072507;28;20025;-74
2021/05/09 09:48:00;;;;;;;4.47;1.40;;;486.90;1024.00;;;;;;5073471;28;20039;-74
2021/05/09 09:50:52;;;;;;;2.60;1.67;;;486.90;972.80;;;;;;5072268;28;20029;-74
2021/05/09 09:53:38;;;;;;;2.58;1.20;;;487.00;1024.00;;;;;;5070561;28;20044;-75
2021/05/09 09:56:07;;;;;;;3.45;1.00;;;487.10;1024.00;;;;;;5072199;28;20589;-75
2021/05/09 09:58:54;;;;;;;3.58;1.17;;;487.20;947.20;;;;;;5072068;28;20769;-75
2021/05/09 10:01:26;;;;;;;3.60;0.85;;;487.30;972.80;;;;;;5073413;28;20403;-74
2021/05/09 10:03:54;;;;;;;0.45;0.45;;;512.00;972.80;;;;;;5071936;28;20037;-74
2021/05/09 10:06:21;;;;;;;1.20;0.63;;;487.30;947.20;;;;;;5073559;28;20048;-75
2021/05/09 10:08:47;;;;;;;2.42;0.60;;;512.00;947.20;;;;;;5073310;28;20035;-73
2021/05/09 10:11:13;;;;;;;2.28;0.82;;;512.10;972.80;;;;;;5073344;28;20108;-74
2021/05/09 10:13:40;;;;;;;4.35;1.52;;;512.30;921.60;;;;;;5073099;28;20103;-76
2021/05/09 10:16:07;;;;;;;1.75;0.73;;;512.40;870.40;;;;;;5073165;28;20044;-74
2021/05/09 10:18:34;;;;;;;3.08;0.95;;;512.40;921.60;;;;;;5072003;28;20031;-74
2021/05/09 10:21:01;;;;;;;1.08;0.90;;;512.50;921.60;;;;;;5071940;28;20024;-74
2021/05/09 10:23:27;;;;;;;1.95;1.45;;;512.50;870.40;;;;;;5073185;28;20096;-74
2021/05/09 10:25:58;;;;;;;1.73;1.00;;;512.60;947.20;;;;;;5074079;28;20471;-76
2021/05/09 10:28:42;;;;;;;6.85;1.67;;;512.60;896.00;;;;;;5075475;28;20082;-75
2021/05/09 10:31:08;;;;;;;1.17;1.05;;;512.70;947.20;;;;;;5077142;28;20072;-74
2021/05/09 10:33:40;;;;;;;4.65;1.40;;;512.80;921.60;;;;;;5075982;28;20056;-74
2021/05/09 10:36:08;;;;;;;2.00;1.77;;;512.80;870.40;;;;;;5075595;28;20027;-76
2021/05/09 10:39:05;;;;;;;2.25;1.25;;;537.60;870.40;;;;;;5058387;28;20086;-75
2021/05/09 10:41:31;;;;;;;1.40;1.30;;;537.70;870.40;;;;;;5048676;28;20025;-75
2021/05/09 10:43:57;;;;;;;2.03;1.13;;;537.70;896.00;;;;;;5077180;28;20047;-75
2021/05/09 10:46:23;;;;;;;2.30;1.02;;;537.70;844.80;;;;;;5077106;28;20070;-75
2021/05/09 10:49:09;;;;;;;2.35;1.50;;;537.80;921.60;;;;;;5076976;28;20512;-75
2021/05/09 10:51:37;;;;;;;1.83;1.17;;;537.90;921.60;;;;;;5076781;28;20027;-75
2021/05/09 10:54:24;;;;;;;5.30;1.40;;;537.90;921.60;;;;;;5076795;28;20024;-75
2021/05/09 10:56:53;;;;;;;4.80;3.30;;;538.10;921.60;;;;;;5077104;28;20100;-74
2021/05/09 10:59:20;;;;;;;2.45;1.17;;;538.20;972.80;;;;;;5076773;28;20476;-76
2021/05/09 11:02:06;;;;;;;1.50;1.40;;;538.20;870.40;;;;;;5076581;28;20027;-75
2021/05/09 11:04:47;;;;;;;3.40;2.53;;;538.30;870.40;;;;;;5075175;28;20036;-75
2021/05/09 11:07:43;;;;;;;3.28;1.30;;;538.30;819.20;;;;;;5077290;28;20020;-75
2021/05/09 11:10:37;;;;;;;11.85;7.63;;;538.40;896.00;;;;;;5077498;28;20020;-75
2021/05/09 11:13:09;;;;;;;2.70;2.22;;;538.50;844.80;;;;;;5082019;28;20047;-76
2021/05/09 11:15:35;;;;;;;3.03;1.40;;;538.50;793.60;;;;;;5082035;28;20040;-74
2021/05/09 11:18:12;;;;;;;2.17;1.15;;;563.20;793.60;;;;;;5087574;28;20020;-75
2021/05/09 11:20:51;;;;;;;4.25;2.78;;;563.30;819.20;;;;;;5081730;28;20017;-75
2021/05/09 11:23:17;;;;;;;2.15;1.38;;;563.30;819.20;;;;;;5075516;28;20044;-76
2021/05/09 11:25:43;;;;;;;2.50;1.27;;;563.40;819.20;;;;;;5076471;28;20407;-75
2021/05/09 11:28:08;;;;;;;1.92;1.20;;;563.40;793.60;;;;;;5075006;28;20024;-75
2021/05/09 11:30:35;;;;;;;2.05;1.40;;;563.50;793.60;;;;;;5076232;28;20526;-75
2021/05/09 11:33:01;;;;;;;3.85;2.03;;;563.60;793.60;;;;;;5076202;28;20024;-75
2021/05/09 11:35:37;;;;;;;2.55;1.35;;;563.70;844.80;;;;;;5075350;28;20016;-75
2021/05/09 11:38:04;;;;;;;3.20;1.25;;;563.70;844.80;;;;;;5075945;28;20021;-75
2021/05/09 11:40:29;;;;;;;10.65;1.40;;;563.80;870.40;;;;;;5074775;28;20574;-75
2021/05/09 11:42:55;;;;;;;1.92;1.25;;;563.80;793.60;;;;;;5074114;28;20119;-74
2021/05/09 11:45:25;;;;;;;2.92;0.90;;;563.80;742.40;;;;;;5075209;28;20042;-75
2021/05/09 11:47:51;;;;;;;6.78;1.92;;;563.90;742.40;;;;;;5074495;28;20024;-74
2021/05/09 11:50:18;;;;;;;2.00;0.93;;;563.80;742.40;;;;;;5074575;28;20037;-74
2021/05/09 11:52:44;;;;;;;1.25;1.15;;;563.80;716.80;;;;;;5075143;28;20035;-75
2021/05/09 11:55:15;;;;;;;0.80;0.80;;;563.90;793.60;;;;;;5075774;28;20029;-77
2021/05/09 11:57:41;;;;;;;1.02;1.00;;;564.00;742.40;;;;;;5076074;28;20031;-75
2021/05/09 12:00:12;;;;;;;2.35;0.95;;;564.10;742.40;;;;;;5074373;28;20414;-74
2021/05/09 12:02:43;;;;;;;6.15;1.33;;;588.80;768.00;;;;;;5074424;28;20027;-75
2021/05/09 12:05:17;;;;;;;6.95;1.38;;;588.90;768.00;;;;;;5075811;28;20056;-75
2021/05/09 12:07:52;;;;;;;3.72;1.77;;;588.90;691.20;;;;;;5075064;28;20427;-73
2021/05/09 12:10:28;;;;;;;1.70;1.48;;;589.00;716.80;;;;;;5074356;28;20024;-74
2021/05/09 12:12:57;;;;;;;3.15;1.10;;;589.10;716.80;;;;;;5075600;28;20017;-74
2021/05/09 12:15:23;;;;;;;1.33;1.23;;;589.20;742.40;;;;;;5075536;28;20440;-74